sensor_id;sensor_type;location;lat;lon;timestamp;P1;durP1;ratioP1;P2;durP2;ratioP2
64938;SDS011;51453;47.738;7.420;2023-07-28T00:01:07;3.10;;;2.13;;
64938;SDS011;51453;47.738;7.420;2023-07-28T00:03:33;2.45;;;1.80;;
64938;SDS011;51453;47.738;7.420;2023-07-28T00:05:58;2.15;;;1.80;;
64938;SDS011;51453;47.738;7.420;2023-07-28T00:08:24;2.20;;;2.00;;
64938;SDS011;51453;47.738;7.420;2023-07-28T00:10:50;2.70;;;2.10;;
64938;SDS011;51453;47.738;7.420;2023-07-28T00:13:15;3.70;;;1.98;;
64938;SDS011;51453;47.738;7.420;2023-07-28T00:15:41;3.53;;;1.85;;
64938;SDS011;51453;47.738;7.420;2023-07-28T00:18:07;3.40;;;1.88;;
64938;SDS011;51453;47.738;7.420;2023-07-28T00:20:32;2.15;;;1.90;;
64938;SDS011;51453;47.738;7.420;2023-07-28T00:22:58;5.03;;;1.95;;
64938;SDS011;51453;47.738;7.420;2023-07-28T00:25:24;2.08;;;1.80;;
64938;SDS011;51453;47.738;7.420;2023-07-28T00:27:49;3.33;;;1.80;;
64938;SDS011;51453;47.738;7.420;2023-07-28T00:30:15;2.65;;;1.70;;
64938;SDS011;51453;47.738;7.420;2023-07-28T00:32:41;1.90;;;1.80;;
64938;SDS011;51453;47.738;7.420;2023-07-28T00:35:06;2.13;;;1.80;;
64938;SDS011;51453;47.738;7.420;2023-07-28T00:37:32;4.03;;;1.90;;
64938;SDS011;51453;47.738;7.420;2023-07-28T00:39:58;3.22;;;2.00;;
64938;SDS011;51453;47.738;7.420;2023-07-28T00:42:23;3.55;;;1.98;;
64938;SDS011;51453;47.738;7.420;2023-07-28T00:44:49;3.58;;;1.95;;
64938;SDS011;51453;47.738;7.420;2023-07-28T00:47:15;3.47;;;1.85;;
64938;SDS011;51453;47.738;7.420;2023-07-28T00:49:40;1.92;;;1.83;;
64938;SDS011;51453;47.738;7.420;2023-07-28T00:52:07;1.90;;;1.80;;
64938;SDS011;51453;47.738;7.420;2023-07-28T00:54:33;2.03;;;1.85;;
64938;SDS011;51453;47.738;7.420;2023-07-28T00:56:59;2.42;;;1.83;;
64938;SDS011;51453;47.738;7.420;2023-07-28T00:59:26;2.10;;;1.90;;
64938;SDS011;51453;47.738;7.420;2023-07-28T01:01:52;3.35;;;2.08;;
64938;SDS011;51453;47.738;7.420;2023-07-28T01:04:18;2.42;;;2.10;;
64938;SDS011;51453;47.738;7.420;2023-07-28T01:09:21;2.72;;;1.67;;
64938;SDS011;51453;47.738;7.420;2023-07-28T01:14:23;2.75;;;2.03;;
64938;SDS011;51453;47.738;7.420;2023-07-28T01:16:50;3.35;;;2.20;;
64938;SDS011;51453;47.738;7.420;2023-07-28T01:19:19;3.55;;;2.00;;
64938;SDS011;51453;47.738;7.420;2023-07-28T01:21:54;2.17;;;2.00;;
64938;SDS011;51453;47.738;7.420;2023-07-28T01:27:38;2.58;;;1.92;;
64938;SDS011;51453;47.738;7.420;2023-07-28T01:30:07;2.00;;;1.90;;
64938;SDS011;51453;47.738;7.420;2023-07-28T01:32:35;2.58;;;1.90;;
64938;SDS011;51453;47.738;7.420;2023-07-28T01:35:01;4.18;;;2.20;;
64938;SDS011;51453;47.738;7.420;2023-07-28T01:37:28;2.40;;;2.20;;
64938;SDS011;51453;47.738;7.420;2023-07-28T01:39:54;2.03;;;1.88;;
64938;SDS011;51453;47.738;7.420;2023-07-28T01:42:20;1.80;;;1.70;;
64938;SDS011;51453;47.738;7.420;2023-07-28T01:44:45;1.92;;;1.83;;
64938;SDS011;51453;47.738;7.420;2023-07-28T01:47:11;5.32;;;2.00;;
64938;SDS011;51453;47.738;7.420;2023-07-28T01:49:36;2.58;;;1.88;;
64938;SDS011;51453;47.738;7.420;2023-07-28T01:52:02;2.22;;;1.92;;
64938;SDS011;51453;47.738;7.420;2023-07-28T01:54:28;3.58;;;2.00;;
64938;SDS011;51453;47.738;7.420;2023-07-28T01:56:54;2.15;;;2.05;;
64938;SDS011;51453;47.738;7.420;2023-07-28T01:59:19;2.63;;;2.10;;
64938;SDS011;51453;47.738;7.420;2023-07-28T02:01:46;2.92;;;1.90;;
64938;SDS011;51453;47.738;7.420;2023-07-28T02:04:12;5.13;;;1.98;;
64938;SDS011;51453;47.738;7.420;2023-07-28T02:06:37;1.70;;;1.58;;
64938;SDS011;51453;47.738;7.420;2023-07-28T02:09:03;4.63;;;1.80;;
64938;SDS011;51453;47.738;7.420;2023-07-28T02:11:29;4.15;;;1.80;;
64938;SDS011;51453;47.738;7.420;2023-07-28T02:13:54;2.15;;;1.95;;
64938;SDS011;51453;47.738;7.420;2023-07-28T02:16:20;2.05;;;1.73;;
64938;SDS011;51453;47.738;7.420;2023-07-28T02:18:46;2.80;;;2.03;;
64938;SDS011;51453;47.738;7.420;2023-07-28T02:21:11;3.25;;;2.10;;
64938;SDS011;51453;47.738;7.420;2023-07-28T02:23:37;7.00;;;2.42;;
64938;SDS011;51453;47.738;7.420;2023-07-28T02:26:03;4.78;;;2.10;;
64938;SDS011;51453;47.738;7.420;2023-07-28T02:28:28;3.58;;;1.98;;
64938;SDS011;51453;47.738;7.420;2023-07-28T02:30:54;3.03;;;2.00;;
64938;SDS011;51453;47.738;7.420;2023-07-28T02:33:19;5.53;;;2.00;;
64938;SDS011;51453;47.738;7.420;2023-07-28T02:35:45;3.33;;;1.70;;
64938;SDS011;51453;47.738;7.420;2023-07-28T02:38:11;3.90;;;1.75;;
64938;SDS011;51453;47.738;7.420;2023-07-28T02:40:36;4.40;;;2.00;;
64938;SDS011;51453;47.738;7.420;2023-07-28T02:43:02;2.63;;;2.10;;
64938;SDS011;51453;47.738;7.420;2023-07-28T02:45:27;2.22;;;1.88;;
64938;SDS011;51453;47.738;7.420;2023-07-28T02:47:53;2.58;;;1.92;;
64938;SDS011;51453;47.738;7.420;2023-07-28T02:50:19;2.97;;;2.67;;
64938;SDS011;51453;47.738;7.420;2023-07-28T02:52:44;4.13;;;2.00;;
64938;SDS011;51453;47.738;7.420;2023-07-28T02:55:10;2.83;;;1.80;;
64938;SDS011;51453;47.738;7.420;2023-07-28T02:57:35;4.90;;;2.33;;
64938;SDS011;51453;47.738;7.420;2023-07-28T03:00:01;2.17;;;2.00;;
64938;SDS011;51453;47.738;7.420;2023-07-28T03:02:29;2.90;;;2.00;;
64938;SDS011;51453;47.738;7.420;2023-07-28T03:04:55;2.95;;;2.10;;
64938;SDS011;51453;47.738;7.420;2023-07-28T03:07:21;2.38;;;2.17;;
64938;SDS011;51453;47.738;7.420;2023-07-28T03:09:46;3.03;;;1.73;;
64938;SDS011;51453;47.738;7.420;2023-07-28T03:12:12;2.85;;;2.30;;
64938;SDS011;51453;47.738;7.420;2023-07-28T03:14:37;3.97;;;2.22;;
64938;SDS011;51453;47.738;7.420;2023-07-28T03:17:03;2.65;;;1.80;;
64938;SDS011;51453;47.738;7.420;2023-07-28T03:19:29;2.40;;;2.00;;
64938;SDS011;51453;47.738;7.420;2023-07-28T03:21:54;3.92;;;2.20;;
64938;SDS011;51453;47.738;7.420;2023-07-28T03:24:20;2.65;;;2.15;;
64938;SDS011;51453;47.738;7.420;2023-07-28T03:26:46;2.65;;;2.03;;
64938;SDS011;51453;47.738;7.420;2023-07-28T03:29:11;1.98;;;1.88;;
64938;SDS011;51453;47.738;7.420;2023-07-28T03:31:37;5.32;;;2.10;;
64938;SDS011;51453;47.738;7.420;2023-07-28T03:34:03;3.75;;;2.22;;
64938;SDS011;51453;47.738;7.420;2023-07-28T03:36:29;2.45;;;2.20;;
64938;SDS011;51453;47.738;7.420;2023-07-28T03:38:54;2.40;;;2.20;;
64938;SDS011;51453;47.738;7.420;2023-07-28T03:41:20;3.53;;;2.30;;
64938;SDS011;51453;47.738;7.420;2023-07-28T03:43:46;3.17;;;2.38;;
64938;SDS011;51453;47.738;7.420;2023-07-28T03:46:11;3.83;;;2.38;;
64938;SDS011;51453;47.738;7.420;2023-07-28T03:48:37;4.35;;;2.20;;
64938;SDS011;51453;47.738;7.420;2023-07-28T03:51:03;2.17;;;1.98;;
64938;SDS011;51453;47.738;7.420;2023-07-28T03:53:29;2.85;;;2.28;;
64938;SDS011;51453;47.738;7.420;2023-07-28T03:55:54;2.88;;;2.47;;
64938;SDS011;51453;47.738;7.420;2023-07-28T03:58:23;2.40;;;2.20;;
64938;SDS011;51453;47.738;7.420;2023-07-28T04:00:50;3.65;;;2.30;;
64938;SDS011;51453;47.738;7.420;2023-07-28T04:03:17;3.90;;;2.47;;
64938;SDS011;51453;47.738;7.420;2023-07-28T04:05:42;3.17;;;2.55;;
64938;SDS011;51453;47.738;7.420;2023-07-28T04:08:08;3.55;;;2.30;;
64938;SDS011;51453;47.738;7.420;2023-07-28T04:10:33;3.55;;;2.50;;
64938;SDS011;51453;47.738;7.420;2023-07-28T04:12:59;4.50;;;2.40;;
64938;SDS011;51453;47.738;7.420;2023-07-28T04:15:25;3.53;;;2.53;;
64938;SDS011;51453;47.738;7.420;2023-07-28T04:17:50;3.35;;;2.50;;
64938;SDS011;51453;47.738;7.420;2023-07-28T04:20:16;4.22;;;2.67;;
64938;SDS011;51453;47.738;7.420;2023-07-28T04:22:41;4.40;;;2.53;;
64938;SDS011;51453;47.738;7.420;2023-07-28T04:25:07;2.60;;;2.38;;
64938;SDS011;51453;47.738;7.420;2023-07-28T04:27:33;6.05;;;3.03;;
64938;SDS011;51453;47.738;7.420;2023-07-28T04:29:59;4.78;;;2.88;;
64938;SDS011;51453;47.738;7.420;2023-07-28T04:32:24;4.22;;;2.65;;
64938;SDS011;51453;47.738;7.420;2023-07-28T04:34:51;4.35;;;2.90;;
64938;SDS011;51453;47.738;7.420;2023-07-28T04:37:17;4.05;;;2.92;;
64938;SDS011;51453;47.738;7.420;2023-07-28T04:39:42;3.47;;;2.65;;
64938;SDS011;51453;47.738;7.420;2023-07-28T04:42:08;3.28;;;2.70;;
64938;SDS011;51453;47.738;7.420;2023-07-28T04:44:34;3.28;;;2.50;;
64938;SDS011;51453;47.738;7.420;2023-07-28T04:47:01;4.22;;;2.85;;
64938;SDS011;51453;47.738;7.420;2023-07-28T04:49:27;5.18;;;2.67;;
64938;SDS011;51453;47.738;7.420;2023-07-28T04:51:52;3.05;;;2.75;;
64938;SDS011;51453;47.738;7.420;2023-07-28T04:54:18;3.00;;;2.50;;
64938;SDS011;51453;47.738;7.420;2023-07-28T04:56:43;4.78;;;2.78;;
64938;SDS011;51453;47.738;7.420;2023-07-28T04:59:10;2.90;;;2.40;;
64938;SDS011;51453;47.738;7.420;2023-07-28T05:01:36;3.30;;;2.67;;
64938;SDS011;51453;47.738;7.420;2023-07-28T05:04:01;3.05;;;2.28;;
64938;SDS011;51453;47.738;7.420;2023-07-28T05:06:27;3.90;;;2.63;;
64938;SDS011;51453;47.738;7.420;2023-07-28T05:08:52;3.38;;;2.63;;
64938;SDS011;51453;47.738;7.420;2023-07-28T05:11:18;7.32;;;2.90;;
64938;SDS011;51453;47.738;7.420;2023-07-28T05:13:44;3.60;;;2.75;;
64938;SDS011;51453;47.738;7.420;2023-07-28T05:16:09;5.47;;;3.13;;
64938;SDS011;51453;47.738;7.420;2023-07-28T05:18:35;4.05;;;3.20;;
64938;SDS011;51453;47.738;7.420;2023-07-28T05:21:02;3.17;;;2.88;;
64938;SDS011;51453;47.738;7.420;2023-07-28T05:23:27;3.83;;;3.03;;
64938;SDS011;51453;47.738;7.420;2023-07-28T05:25:53;5.10;;;3.08;;
64938;SDS011;51453;47.738;7.420;2023-07-28T05:28:19;5.53;;;3.00;;
64938;SDS011;51453;47.738;7.420;2023-07-28T05:30:44;3.90;;;3.10;;
64938;SDS011;51453;47.738;7.420;2023-07-28T05:33:10;5.00;;;3.10;;
64938;SDS011;51453;47.738;7.420;2023-07-28T05:35:35;3.20;;;2.90;;
64938;SDS011;51453;47.738;7.420;2023-07-28T05:38:01;3.67;;;2.90;;
64938;SDS011;51453;47.738;7.420;2023-07-28T05:40:27;3.72;;;2.47;;
64938;SDS011;51453;47.738;7.420;2023-07-28T05:42:52;3.90;;;2.60;;
64938;SDS011;51453;47.738;7.420;2023-07-28T05:45:18;4.38;;;2.70;;
64938;SDS011;51453;47.738;7.420;2023-07-28T05:47:44;3.80;;;2.38;;
64938;SDS011;51453;47.738;7.420;2023-07-28T05:50:10;4.40;;;2.35;;
64938;SDS011;51453;47.738;7.420;2023-07-28T05:52:36;2.33;;;2.13;;
64938;SDS011;51453;47.738;7.420;2023-07-28T05:55:02;3.90;;;2.40;;
64938;SDS011;51453;47.738;7.420;2023-07-28T05:57:27;2.55;;;2.35;;
64938;SDS011;51453;47.738;7.420;2023-07-28T05:59:53;3.67;;;2.50;;
64938;SDS011;51453;47.738;7.420;2023-07-28T06:02:19;4.97;;;2.35;;
64938;SDS011;51453;47.738;7.420;2023-07-28T06:04:44;2.60;;;2.40;;
64938;SDS011;51453;47.738;7.420;2023-07-28T06:07:10;2.63;;;2.40;;
64938;SDS011;51453;47.738;7.420;2023-07-28T06:09:36;2.92;;;2.60;;
64938;SDS011;51453;47.738;7.420;2023-07-28T06:12:02;3.70;;;2.30;;
64938;SDS011;51453;47.738;7.420;2023-07-28T06:14:28;3.35;;;2.58;;
64938;SDS011;51453;47.738;7.420;2023-07-28T06:16:54;2.47;;;2.28;;
64938;SDS011;51453;47.738;7.420;2023-07-28T06:19:20;3.67;;;2.30;;
64938;SDS011;51453;47.738;7.420;2023-07-28T06:21:49;4.75;;;3.10;;
64938;SDS011;51453;47.738;7.420;2023-07-28T06:24:16;5.10;;;3.10;;
64938;SDS011;51453;47.738;7.420;2023-07-28T06:26:41;3.95;;;2.42;;
64938;SDS011;51453;47.738;7.420;2023-07-28T06:29:07;6.50;;;2.47;;
64938;SDS011;51453;47.738;7.420;2023-07-28T06:31:33;2.80;;;2.60;;
64938;SDS011;51453;47.738;7.420;2023-07-28T06:33:58;7.57;;;2.70;;
64938;SDS011;51453;47.738;7.420;2023-07-28T06:36:24;3.80;;;2.20;;
64938;SDS011;51453;47.738;7.420;2023-07-28T06:38:49;2.95;;;2.25;;
64938;SDS011;51453;47.738;7.420;2023-07-28T06:41:17;6.43;;;2.30;;
64938;SDS011;51453;47.738;7.420;2023-07-28T06:43:43;3.90;;;2.30;;
64938;SDS011;51453;47.738;7.420;2023-07-28T06:46:08;2.97;;;2.30;;
64938;SDS011;51453;47.738;7.420;2023-07-28T06:48:34;4.68;;;2.25;;
64938;SDS011;51453;47.738;7.420;2023-07-28T06:51:00;2.70;;;2.50;;
64938;SDS011;51453;47.738;7.420;2023-07-28T06:53:25;3.55;;;2.35;;
64938;SDS011;51453;47.738;7.420;2023-07-28T06:55:51;4.15;;;2.30;;
64938;SDS011;51453;47.738;7.420;2023-07-28T06:58:17;4.18;;;2.40;;
64938;SDS011;51453;47.738;7.420;2023-07-28T07:00:43;3.70;;;2.30;;
64938;SDS011;51453;47.738;7.420;2023-07-28T07:03:09;3.80;;;2.20;;
64938;SDS011;51453;47.738;7.420;2023-07-28T07:05:35;2.53;;;2.33;;
64938;SDS011;51453;47.738;7.420;2023-07-28T07:08:01;5.28;;;2.40;;
64938;SDS011;51453;47.738;7.420;2023-07-28T07:10:27;6.50;;;2.25;;
64938;SDS011;51453;47.738;7.420;2023-07-28T07:12:52;4.78;;;2.67;;
64938;SDS011;51453;47.738;7.420;2023-07-28T07:15:18;5.88;;;2.60;;
64938;SDS011;51453;47.738;7.420;2023-07-28T07:17:44;6.70;;;2.17;;
64938;SDS011;51453;47.738;7.420;2023-07-28T07:20:09;2.78;;;2.10;;
64938;SDS011;51453;47.738;7.420;2023-07-28T07:22:35;3.03;;;2.25;;
64938;SDS011;51453;47.738;7.420;2023-07-28T07:25:02;3.20;;;2.08;;
64938;SDS011;51453;47.738;7.420;2023-07-28T07:27:29;2.67;;;2.08;;
64938;SDS011;51453;47.738;7.420;2023-07-28T07:29:54;4.07;;;2.05;;
64938;SDS011;51453;47.738;7.420;2023-07-28T07:32:20;2.30;;;1.92;;
64938;SDS011;51453;47.738;7.420;2023-07-28T07:34:46;2.60;;;2.00;;
64938;SDS011;51453;47.738;7.420;2023-07-28T07:37:12;3.55;;;2.10;;
64938;SDS011;51453;47.738;7.420;2023-07-28T07:39:37;2.28;;;2.08;;
64938;SDS011;51453;47.738;7.420;2023-07-28T07:42:06;2.70;;;2.17;;
64938;SDS011;51453;47.738;7.420;2023-07-28T07:44:31;3.42;;;2.17;;
64938;SDS011;51453;47.738;7.420;2023-07-28T07:46:59;3.40;;;2.50;;
64938;SDS011;51453;47.738;7.420;2023-07-28T07:49:25;4.30;;;2.25;;
64938;SDS011;51453;47.738;7.420;2023-07-28T07:51:51;3.67;;;2.25;;
64938;SDS011;51453;47.738;7.420;2023-07-28T07:54:17;2.95;;;2.22;;
64938;SDS011;51453;47.738;7.420;2023-07-28T07:56:43;3.38;;;2.10;;
64938;SDS011;51453;47.738;7.420;2023-07-28T07:59:11;2.22;;;2.03;;
64938;SDS011;51453;47.738;7.420;2023-07-28T08:01:37;3.80;;;2.40;;
64938;SDS011;51453;47.738;7.420;2023-07-28T08:04:02;6.00;;;2.00;;
64938;SDS011;51453;47.738;7.420;2023-07-28T08:06:28;3.33;;;2.00;;
64938;SDS011;51453;47.738;7.420;2023-07-28T08:08:54;3.13;;;1.90;;
64938;SDS011;51453;47.738;7.420;2023-07-28T08:11:21;2.10;;;1.80;;
64938;SDS011;51453;47.738;7.420;2023-07-28T08:13:47;2.63;;;1.90;;
64938;SDS011;51453;47.738;7.420;2023-07-28T08:16:13;2.40;;;2.20;;
64938;SDS011;51453;47.738;7.420;2023-07-28T08:18:39;1.98;;;1.85;;
64938;SDS011;51453;47.738;7.420;2023-07-28T08:21:04;2.05;;;1.88;;
64938;SDS011;51453;47.738;7.420;2023-07-28T08:23:30;2.00;;;1.80;;
64938;SDS011;51453;47.738;7.420;2023-07-28T08:25:56;3.33;;;1.63;;
64938;SDS011;51453;47.738;7.420;2023-07-28T08:28:21;3.80;;;1.88;;
64938;SDS011;51453;47.738;7.420;2023-07-28T08:30:54;2.17;;;1.83;;
64938;SDS011;51453;47.738;7.420;2023-07-28T08:33:21;3.60;;;1.70;;
64938;SDS011;51453;47.738;7.420;2023-07-28T08:35:47;2.60;;;1.90;;
64938;SDS011;51453;47.738;7.420;2023-07-28T08:38:13;3.10;;;1.80;;
64938;SDS011;51453;47.738;7.420;2023-07-28T08:40:39;3.03;;;1.80;;
64938;SDS011;51453;47.738;7.420;2023-07-28T08:43:05;2.00;;;1.70;;
64938;SDS011;51453;47.738;7.420;2023-07-28T08:45:31;1.45;;;1.35;;
64938;SDS011;51453;47.738;7.420;2023-07-28T08:47:56;4.80;;;1.77;;
64938;SDS011;51453;47.738;7.420;2023-07-28T08:50:22;4.35;;;1.80;;
64938;SDS011;51453;47.738;7.420;2023-07-28T08:52:48;2.65;;;1.80;;
64938;SDS011;51453;47.738;7.420;2023-07-28T08:55:15;1.85;;;1.63;;
64938;SDS011;51453;47.738;7.420;2023-07-28T08:57:42;2.08;;;1.80;;
64938;SDS011;51453;47.738;7.420;2023-07-28T09:00:11;1.75;;;1.65;;
64938;SDS011;51453;47.738;7.420;2023-07-28T09:02:39;1.92;;;1.70;;
64938;SDS011;51453;47.738;7.420;2023-07-28T09:05:06;2.58;;;1.77;;
64938;SDS011;51453;47.738;7.420;2023-07-28T09:07:35;1.70;;;1.60;;
64938;SDS011;51453;47.738;7.420;2023-07-28T09:10:01;3.07;;;2.00;;
64938;SDS011;51453;47.738;7.420;2023-07-28T09:12:30;1.70;;;1.60;;
64938;SDS011;51453;47.738;7.420;2023-07-28T09:14:57;3.65;;;2.00;;
64938;SDS011;51453;47.738;7.420;2023-07-28T09:17:23;3.15;;;1.90;;
64938;SDS011;51453;47.738;7.420;2023-07-28T09:19:49;1.92;;;1.73;;
64938;SDS011;51453;47.738;7.420;2023-07-28T09:22:15;1.95;;;1.75;;
64938;SDS011;51453;47.738;7.420;2023-07-28T09:24:42;1.92;;;1.73;;
64938;SDS011;51453;47.738;7.420;2023-07-28T09:27:07;2.15;;;1.63;;
64938;SDS011;51453;47.738;7.420;2023-07-28T09:29:48;2.30;;;1.60;;
64938;SDS011;51453;47.738;7.420;2023-07-28T09:32:15;2.22;;;1.80;;
64938;SDS011;51453;47.738;7.420;2023-07-28T09:34:41;1.90;;;1.80;;
64938;SDS011;51453;47.738;7.420;2023-07-28T09:37:07;4.07;;;2.08;;
64938;SDS011;51453;47.738;7.420;2023-07-28T09:39:36;3.25;;;1.90;;
64938;SDS011;51453;47.738;7.420;2023-07-28T09:42:01;2.88;;;1.52;;
64938;SDS011;51453;47.738;7.420;2023-07-28T09:44:28;2.80;;;2.10;;
64938;SDS011;51453;47.738;7.420;2023-07-28T09:46:55;1.95;;;1.70;;
64938;SDS011;51453;47.738;7.420;2023-07-28T09:49:27;2.83;;;1.80;;
64938;SDS011;51453;47.738;7.420;2023-07-28T09:52:00;2.40;;;1.95;;
64938;SDS011;51453;47.738;7.420;2023-07-28T09:54:30;2.33;;;1.85;;
64938;SDS011;51453;47.738;7.420;2023-07-28T09:56:59;1.92;;;1.67;;
64938;SDS011;51453;47.738;7.420;2023-07-28T09:59:28;2.13;;;1.88;;
64938;SDS011;51453;47.738;7.420;2023-07-28T10:01:57;2.05;;;1.75;;
64938;SDS011;51453;47.738;7.420;2023-07-28T10:04:23;1.80;;;1.70;;
64938;SDS011;51453;47.738;7.420;2023-07-28T10:06:50;3.53;;;1.80;;
64938;SDS011;51453;47.738;7.420;2023-07-28T10:09:21;2.25;;;2.03;;
64938;SDS011;51453;47.738;7.420;2023-07-28T10:11:55;3.30;;;1.73;;
64938;SDS011;51453;47.738;7.420;2023-07-28T10:14:30;2.72;;;1.80;;
64938;SDS011;51453;47.738;7.420;2023-07-28T10:17:02;1.65;;;1.55;;
64938;SDS011;51453;47.738;7.420;2023-07-28T10:19:33;2.40;;;1.80;;
64938;SDS011;51453;47.738;7.420;2023-07-28T10:22:08;1.80;;;1.70;;
64938;SDS011;51453;47.738;7.420;2023-07-28T10:24:51;7.32;;;1.80;;
64938;SDS011;51453;47.738;7.420;2023-07-28T10:30:02;3.42;;;1.75;;
64938;SDS011;51453;47.738;7.420;2023-07-28T10:32:34;3.80;;;2.20;;
64938;SDS011;51453;47.738;7.420;2023-07-28T10:37:37;2.47;;;2.10;;
64938;SDS011;51453;47.738;7.420;2023-07-28T10:42:59;4.15;;;2.38;;
64938;SDS011;51453;47.738;7.420;2023-07-28T10:45:27;4.72;;;2.22;;
64938;SDS011;51453;47.738;7.420;2023-07-28T10:47:54;3.05;;;2.30;;
64938;SDS011;51453;47.738;7.420;2023-07-28T10:50:22;4.05;;;2.55;;
64938;SDS011;51453;47.738;7.420;2023-07-28T10:52:48;3.38;;;2.17;;
64938;SDS011;51453;47.738;7.420;2023-07-28T10:55:21;2.70;;;2.45;;
64938;SDS011;51453;47.738;7.420;2023-07-28T10:57:49;3.47;;;2.28;;
64938;SDS011;51453;47.738;7.420;2023-07-28T11:00:16;4.32;;;2.63;;
64938;SDS011;51453;47.738;7.420;2023-07-28T11:02:48;2.53;;;2.33;;
64938;SDS011;51453;47.738;7.420;2023-07-28T11:07:55;3.45;;;2.47;;
64938;SDS011;51453;47.738;7.420;2023-07-28T11:10:22;3.97;;;2.50;;
64938;SDS011;51453;47.738;7.420;2023-07-28T11:12:49;4.82;;;2.80;;
64938;SDS011;51453;47.738;7.420;2023-07-28T11:15:16;5.78;;;2.78;;
64938;SDS011;51453;47.738;7.420;2023-07-28T11:17:46;3.15;;;2.85;;
64938;SDS011;51453;47.738;7.420;2023-07-28T11:20:17;4.32;;;2.95;;
64938;SDS011;51453;47.738;7.420;2023-07-28T11:22:53;4.10;;;2.90;;
64938;SDS011;51453;47.738;7.420;2023-07-28T11:25:26;4.87;;;3.07;;
64938;SDS011;51453;47.738;7.420;2023-07-28T11:27:53;6.93;;;3.22;;
64938;SDS011;51453;47.738;7.420;2023-07-28T11:30:21;4.53;;;2.80;;
64938;SDS011;51453;47.738;7.420;2023-07-28T11:32:49;5.55;;;3.03;;
64938;SDS011;51453;47.738;7.420;2023-07-28T11:35:16;5.05;;;3.00;;
64938;SDS011;51453;47.738;7.420;2023-07-28T11:37:45;3.05;;;2.75;;
64938;SDS011;51453;47.738;7.420;2023-07-28T11:40:13;3.75;;;2.78;;
64938;SDS011;51453;47.738;7.420;2023-07-28T11:42:40;2.75;;;2.53;;
64938;SDS011;51453;47.738;7.420;2023-07-28T11:45:09;4.45;;;2.38;;
64938;SDS011;51453;47.738;7.420;2023-07-28T11:47:35;7.63;;;2.85;;
64938;SDS011;51453;47.738;7.420;2023-07-28T11:50:02;3.40;;;2.92;;
64938;SDS011;51453;47.738;7.420;2023-07-28T11:52:31;5.72;;;2.70;;
64938;SDS011;51453;47.738;7.420;2023-07-28T11:54:58;6.10;;;3.10;;
64938;SDS011;51453;47.738;7.420;2023-07-28T11:57:28;2.53;;;2.33;;
64938;SDS011;51453;47.738;7.420;2023-07-28T11:59:58;3.15;;;2.85;;
64938;SDS011;51453;47.738;7.420;2023-07-28T12:04:55;5.80;;;2.80;;
64938;SDS011;51453;47.738;7.420;2023-07-28T12:07:32;3.53;;;2.90;;
64938;SDS011;51453;47.738;7.420;2023-07-28T12:10:02;3.63;;;2.92;;
64938;SDS011;51453;47.738;7.420;2023-07-28T12:12:31;3.22;;;2.50;;
64938;SDS011;51453;47.738;7.420;2023-07-28T12:15:17;6.78;;;2.90;;
64938;SDS011;51453;47.738;7.420;2023-07-28T12:20:26;4.05;;;2.40;;
64938;SDS011;51453;47.738;7.420;2023-07-28T12:22:57;2.63;;;2.38;;
64938;SDS011;51453;47.738;7.420;2023-07-28T12:25:23;4.93;;;2.20;;
64938;SDS011;51453;47.738;7.420;2023-07-28T12:27:48;2.60;;;2.05;;
64938;SDS011;51453;47.738;7.420;2023-07-28T12:30:14;2.83;;;2.30;;
64938;SDS011;51453;47.738;7.420;2023-07-28T12:32:39;3.42;;;2.50;;
64938;SDS011;51453;47.738;7.420;2023-07-28T12:35:05;2.65;;;2.33;;
64938;SDS011;51453;47.738;7.420;2023-07-28T12:37:31;4.20;;;1.90;;
64938;SDS011;51453;47.738;7.420;2023-07-28T12:39:57;7.38;;;2.00;;
64938;SDS011;51453;47.738;7.420;2023-07-28T12:42:22;2.83;;;1.88;;
64938;SDS011;51453;47.738;7.420;2023-07-28T12:44:48;1.77;;;1.55;;
64938;SDS011;51453;47.738;7.420;2023-07-28T12:47:13;3.30;;;1.33;;
64938;SDS011;51453;47.738;7.420;2023-07-28T12:49:39;1.52;;;1.40;;
64938;SDS011;51453;47.738;7.420;2023-07-28T12:52:05;2.60;;;1.60;;
64938;SDS011;51453;47.738;7.420;2023-07-28T12:54:32;1.70;;;1.35;;
64938;SDS011;51453;47.738;7.420;2023-07-28T12:56:58;12.02;;;1.80;;
64938;SDS011;51453;47.738;7.420;2023-07-28T12:59:23;3.25;;;1.80;;
64938;SDS011;51453;47.738;7.420;2023-07-28T13:01:49;2.00;;;1.70;;
64938;SDS011;51453;47.738;7.420;2023-07-28T13:04:15;1.73;;;1.50;;
64938;SDS011;51453;47.738;7.420;2023-07-28T13:06:40;3.28;;;1.80;;
64938;SDS011;51453;47.738;7.420;2023-07-28T13:09:06;2.53;;;1.92;;
64938;SDS011;51453;47.738;7.420;2023-07-28T13:11:35;7.28;;;1.70;;
64938;SDS011;51453;47.738;7.420;2023-07-28T13:14:01;3.65;;;2.10;;
64938;SDS011;51453;47.738;7.420;2023-07-28T13:16:27;4.22;;;2.00;;
64938;SDS011;51453;47.738;7.420;2023-07-28T13:18:53;1.92;;;1.83;;
64938;SDS011;51453;47.738;7.420;2023-07-28T13:21:18;3.25;;;1.67;;
64938;SDS011;51453;47.738;7.420;2023-07-28T13:23:44;3.20;;;1.80;;
64938;SDS011;51453;47.738;7.420;2023-07-28T13:26:10;2.08;;;1.67;;
64938;SDS011;51453;47.738;7.420;2023-07-28T13:28:35;4.60;;;1.35;;
64938;SDS011;51453;47.738;7.420;2023-07-28T13:31:02;2.05;;;1.60;;
64938;SDS011;51453;47.738;7.420;2023-07-28T13:33:28;2.60;;;1.65;;
64938;SDS011;51453;47.738;7.420;2023-07-28T13:35:54;3.40;;;1.30;;
64938;SDS011;51453;47.738;7.420;2023-07-28T13:38:19;1.60;;;1.10;;
64938;SDS011;51453;47.738;7.420;2023-07-28T13:40:45;1.48;;;1.30;;
64938;SDS011;51453;47.738;7.420;2023-07-28T13:43:10;1.20;;;1.10;;
64938;SDS011;51453;47.738;7.420;2023-07-28T13:45:36;1.38;;;1.10;;
64938;SDS011;51453;47.738;7.420;2023-07-28T13:48:02;2.08;;;1.50;;
64938;SDS011;51453;47.738;7.420;2023-07-28T13:50:28;2.22;;;1.20;;
64938;SDS011;51453;47.738;7.420;2023-07-28T13:52:54;5.05;;;1.30;;
64938;SDS011;51453;47.738;7.420;2023-07-28T13:55:19;5.47;;;1.30;;
64938;SDS011;51453;47.738;7.420;2023-07-28T13:57:45;5.90;;;1.30;;
64938;SDS011;51453;47.738;7.420;2023-07-28T14:00:11;1.33;;;1.13;;
64938;SDS011;51453;47.738;7.420;2023-07-28T14:02:37;4.18;;;1.20;;
64938;SDS011;51453;47.738;7.420;2023-07-28T14:05:05;1.73;;;1.63;;
64938;SDS011;51453;47.738;7.420;2023-07-28T14:07:31;1.38;;;1.20;;
64938;SDS011;51453;47.738;7.420;2023-07-28T14:09:58;3.05;;;1.00;;
64938;SDS011;51453;47.738;7.420;2023-07-28T14:25:53;1.17;;;1.10;;
64938;SDS011;51453;47.738;7.420;2023-07-28T14:28:20;1.75;;;1.27;;
64938;SDS011;51453;47.738;7.420;2023-07-28T14:30:46;2.25;;;1.02;;
64938;SDS011;51453;47.738;7.420;2023-07-28T14:33:15;1.40;;;1.30;;
64938;SDS011;51453;47.738;7.420;2023-07-28T14:35:48;2.00;;;1.17;;
64938;SDS011;51453;47.738;7.420;2023-07-28T14:38:14;1.52;;;1.35;;
64938;SDS011;51453;47.738;7.420;2023-07-28T14:40:41;0.88;;;0.88;;
64938;SDS011;51453;47.738;7.420;2023-07-28T14:43:09;1.42;;;1.20;;
64938;SDS011;51453;47.738;7.420;2023-07-28T14:45:35;1.17;;;0.80;;
64938;SDS011;51453;47.738;7.420;2023-07-28T14:48:01;1.98;;;1.20;;
64938;SDS011;51453;47.738;7.420;2023-07-28T14:50:28;2.35;;;1.00;;
64938;SDS011;51453;47.738;7.420;2023-07-28T14:52:53;1.75;;;1.10;;
64938;SDS011;51453;47.738;7.420;2023-07-28T14:55:19;1.58;;;1.10;;
64938;SDS011;51453;47.738;7.420;2023-07-28T14:57:44;1.15;;;1.10;;
64938;SDS011;51453;47.738;7.420;2023-07-28T15:00:10;1.10;;;1.10;;
64938;SDS011;51453;47.738;7.420;2023-07-28T15:02:37;1.50;;;1.25;;
64938;SDS011;51453;47.738;7.420;2023-07-28T15:05:03;1.45;;;1.38;;
64938;SDS011;51453;47.738;7.420;2023-07-28T15:07:29;4.07;;;1.40;;
64938;SDS011;51453;47.738;7.420;2023-07-28T15:09:54;1.95;;;1.30;;
64938;SDS011;51453;47.738;7.420;2023-07-28T15:12:20;1.85;;;1.40;;
64938;SDS011;51453;47.738;7.420;2023-07-28T15:14:46;1.45;;;1.33;;
64938;SDS011;51453;47.738;7.420;2023-07-28T15:17:11;1.38;;;1.20;;
64938;SDS011;51453;47.738;7.420;2023-07-28T15:19:37;2.17;;;1.30;;
64938;SDS011;51453;47.738;7.420;2023-07-28T15:22:02;1.42;;;1.33;;